Paradise, Missouri
Current Conditions -  °F | °C
As of 1:53 AM on Monday 24 Nov 2014 (Local Time) from KMCI Reporting Station
Broken Clouds Broken Clouds  
Wind Chill: 29°   Ceiling: 3600
Heat Index: 39°   Visibility: 10mi
Dew Point: 30°   Wind: 20mph
Humidity: 70%   Direction: 320°NW
Pressure: 29.53"   Gusts: 32mph
Location:  39.3944°N, 94.5382°W
Report Text: KMCI 240753Z 32017G28KT 10SM BKN036 04/M01 A2953 RMK AO2 PK WND 31028/0723 PRESRR SLP001 T00391011 $
Loading
Personal Weather Stations






























Interactive Weather Map New forecast layout! Learn more

10-Day Weather Forecast

Advertisements
Track Severe Weather on mobile